Terminal Aerodrome Forecast
Issued by NWS Bismarck, ND

Home | Current Version | Previous Version | Text Only | Print | Product List | Glossary Off
Versions: 1 2 3 4 5 6 7 8 9 10 11 12 13 14 15 16 17 18 19 20 21 22 23

000
FTUS43 KBIS 240500
TAFISN
TAF
KISN 240533Z 2406/2506 33005KT P6SM FEW012 SCT050 SCT070
      TEMPO 2406/2410 BKN050 OVC070
     FM241600 29007KT P6SM SCT080 BKN100
     FM242100 27010KT P6SM BKN040 OVC080
     FM250000 29008KT P6SM -SN BKN020 OVC030=

USA.gov is the U.S. government's official web portal to all federal, state and local government web resources and services.